createdAt,value
2022-08-19T00:01:53.039Z,20.40
2022-08-19T00:04:23.245Z,21.80
2022-08-19T00:06:51.575Z,21.52
2022-08-19T00:09:21.642Z,22.17
2022-08-19T00:11:51.674Z,22.33
2022-08-19T00:14:20.642Z,22.27
2022-08-19T00:16:49.703Z,22.67
2022-08-19T00:19:18.760Z,20.05
2022-08-19T00:21:47.184Z,23.08
2022-08-19T00:24:16.419Z,22.15
2022-08-19T00:26:45.652Z,19.77
2022-08-19T00:29:16.289Z,23.70
2022-08-19T00:31:44.819Z,23.45
2022-08-19T00:34:13.574Z,22.88
2022-08-19T00:36:42.356Z,20.60
2022-08-19T00:39:10.645Z,19.65
2022-08-19T00:41:39.121Z,20.20
2022-08-19T00:44:08.808Z,21.25
2022-08-19T00:46:39.866Z,23.17
2022-08-19T00:49:12.018Z,23.95
2022-08-19T00:51:40.329Z,22.00
2022-08-19T00:54:10.074Z,22.23
2022-08-19T00:56:38.910Z,20.63
2022-08-19T00:59:10.487Z,22.35
2022-08-19T01:01:40.432Z,21.92
2022-08-19T01:04:08.885Z,22.60
2022-08-19T01:06:38.320Z,20.98
2022-08-19T01:09:07.102Z,25.65
2022-08-19T01:11:37.177Z,19.10
2022-08-19T01:14:05.886Z,22.77
2022-08-19T01:16:35.176Z,19.88
2022-08-19T01:19:05.211Z,22.55
2022-08-19T01:21:35.267Z,21.55
2022-08-19T01:24:05.127Z,20.48
2022-08-19T01:26:33.479Z,20.65
2022-08-19T01:29:05.241Z,20.08
2022-08-19T01:31:33.694Z,23.60
2022-08-19T01:34:02.198Z,19.58
2022-08-19T01:36:32.907Z,20.48
2022-08-19T01:39:01.850Z,20.75
2022-08-19T01:41:31.574Z,21.02
2022-08-19T01:44:13.233Z,20.80
2022-08-19T01:46:48.153Z,20.70
2022-08-19T01:49:17.172Z,22.10
2022-08-19T01:51:45.501Z,21.67
2022-08-19T01:54:26.977Z,20.58
2022-08-19T01:56:58.589Z,20.70
2022-08-19T01:59:27.006Z,20.00
2022-08-19T02:01:55.463Z,18.95
2022-08-19T02:04:24.390Z,21.48
2022-08-19T02:06:52.709Z,19.55
2022-08-19T02:09:21.028Z,21.92
2022-08-19T02:11:49.347Z,23.48
2022-08-19T02:14:19.481Z,20.52
2022-08-19T02:16:47.833Z,23.30
2022-08-19T02:19:16.145Z,22.23
2022-08-19T02:21:44.604Z,23.00
2022-08-19T02:24:13.235Z,23.20
2022-08-19T02:26:41.804Z,22.50
2022-08-19T02:29:10.248Z,19.52
2022-08-19T02:31:39.947Z,22.45
2022-08-19T02:34:08.248Z,21.90
2022-08-19T02:36:36.705Z,22.30
2022-08-19T02:39:10.195Z,19.73
2022-08-19T02:41:38.835Z,22.13
2022-08-19T02:44:29.408Z,23.10
2022-08-19T02:46:57.450Z,21.80
2022-08-19T02:49:25.741Z,22.15
2022-08-19T02:51:55.385Z,24.58
2022-08-19T02:54:23.733Z,20.95
2022-08-19T02:56:52.447Z,22.83
2022-08-19T02:59:22.850Z,23.20
2022-08-19T03:01:51.624Z,20.40
2022-08-19T03:04:21.687Z,21.27
2022-08-19T03:06:50.811Z,20.90
2022-08-19T03:09:20.564Z,21.45
2022-08-19T03:11:52.050Z,23.10
2022-08-19T03:14:21.110Z,23.55
2022-08-19T03:16:50.812Z,21.45
2022-08-19T03:19:19.865Z,23.77
2022-08-19T03:21:50.024Z,21.83
2022-08-19T03:24:19.725Z,19.98
2022-08-19T03:26:49.696Z,23.00
2022-08-19T03:29:30.449Z,24.30
2022-08-19T03:32:01.722Z,22.73
2022-08-19T03:34:31.221Z,22.50
2022-08-19T03:37:02.266Z,21.25
2022-08-19T03:39:31.156Z,22.92
2022-08-19T03:42:32.841Z,23.23
2022-08-19T03:44:49.251Z,24.83
2022-08-19T03:47:17.982Z,20.45
2022-08-19T03:49:47.326Z,22.38
2022-08-19T03:52:17.058Z,25.90
2022-08-19T03:54:45.947Z,22.48
2022-08-19T03:57:14.267Z,23.55
2022-08-19T03:59:42.677Z,28.58
2022-08-19T04:02:12.504Z,23.20
2022-08-19T04:04:41.428Z,23.73
2022-08-19T04:07:10.393Z,22.65
2022-08-19T04:09:40.234Z,23.98
2022-08-19T04:12:08.810Z,21.52
2022-08-19T04:14:37.579Z,22.33
2022-08-19T04:17:06.715Z,22.85
2022-08-19T04:19:35.220Z,21.40
2022-08-19T04:22:03.497Z,21.13
2022-08-19T04:24:31.861Z,22.05
2022-08-19T04:27:03.688Z,22.65
2022-08-19T04:29:32.173Z,20.33
2022-08-19T04:32:09.445Z,21.95
2022-08-19T04:35:01.384Z,23.90
2022-08-19T04:37:27.467Z,21.80
2022-08-19T04:40:29.168Z,22.05
2022-08-19T04:42:59.361Z,23.05
2022-08-19T04:45:27.662Z,23.90
2022-08-19T04:48:26.645Z,21.10
2022-08-19T04:50:46.626Z,20.60
2022-08-19T04:53:14.960Z,20.00
2022-08-19T04:55:44.207Z,22.50
2022-08-19T04:58:13.891Z,21.00
2022-08-19T05:00:43.073Z,23.48
2022-08-19T05:03:11.373Z,20.20
2022-08-19T05:05:44.516Z,23.73
2022-08-19T05:08:14.198Z,23.10
2022-08-19T05:10:43.814Z,20.83
2022-08-19T05:13:12.207Z,23.05
2022-08-19T05:15:41.879Z,21.38
2022-08-19T05:18:28.343Z,25.48
2022-08-19T05:21:14.358Z,25.10
2022-08-19T05:23:42.832Z,21.20
2022-08-19T05:26:12.007Z,21.50
2022-08-19T05:28:40.333Z,21.10
2022-08-19T05:31:09.959Z,26.02
2022-08-19T05:33:38.471Z,21.05
2022-08-19T05:36:08.296Z,23.42
2022-08-19T05:38:37.389Z,24.13
2022-08-19T05:41:09.429Z,21.80
2022-08-19T05:43:38.445Z,23.55
2022-08-19T05:46:07.062Z,22.02
2022-08-19T05:48:36.784Z,19.80
2022-08-19T05:51:07.146Z,19.05
2022-08-19T05:53:35.604Z,18.05
2022-08-19T05:56:06.575Z,20.75
2022-08-19T05:58:34.994Z,18.08
2022-08-19T06:01:06.377Z,18.70
2022-08-19T06:03:35.630Z,18.67
2022-08-19T06:06:05.306Z,18.00
2022-08-19T06:08:35.064Z,16.20
2022-08-19T06:11:17.098Z,17.92
2022-08-19T06:13:46.094Z,18.20
2022-08-19T06:16:14.592Z,19.50
2022-08-19T06:18:45.126Z,17.02
2022-08-19T06:21:15.113Z,16.13
2022-08-19T06:23:44.038Z,16.23
2022-08-19T06:26:14.502Z,17.60
2022-08-19T06:28:44.197Z,17.60
2022-08-19T06:31:14.975Z,16.73
2022-08-19T06:33:43.519Z,17.27
2022-08-19T06:36:20.158Z,17.20
2022-08-19T06:38:48.433Z,15.40
2022-08-19T06:41:16.775Z,17.30
2022-08-19T06:43:45.066Z,16.38
2022-08-19T06:46:15.149Z,14.85
2022-08-19T06:48:45.386Z,16.65
2022-08-19T06:51:16.634Z,12.57
2022-08-19T06:56:24.136Z,14.82
2022-08-19T06:58:53.866Z,15.10
2022-08-19T07:01:23.442Z,15.73
2022-08-19T07:03:51.722Z,15.50
2022-08-19T07:09:12.931Z,15.80
2022-08-19T07:11:41.788Z,14.40
2022-08-19T07:14:19.005Z,15.88
2022-08-19T07:16:48.924Z,14.13
2022-08-19T07:19:18.748Z,15.00
2022-08-19T07:21:48.245Z,16.10
2022-08-19T07:24:18.422Z,14.45
2022-08-19T07:26:46.829Z,16.80
2022-08-19T07:29:20.463Z,14.57
2022-08-19T07:31:52.796Z,15.87
2022-08-19T07:34:22.674Z,17.65
2022-08-19T07:36:50.982Z,16.83
2022-08-19T07:39:21.886Z,14.65
2022-08-19T07:41:51.385Z,15.65
2022-08-19T07:44:21.494Z,16.95
2022-08-19T07:46:53.229Z,16.42
2022-08-19T07:49:22.377Z,14.95
2022-08-19T07:51:51.640Z,16.10
2022-08-19T07:54:22.340Z,15.27
2022-08-19T07:56:52.510Z,15.30
2022-08-19T07:59:21.551Z,15.63
2022-08-19T08:01:51.136Z,14.30
2022-08-19T08:04:37.722Z,15.00
2022-08-19T08:07:23.623Z,16.10
2022-08-19T08:12:36.726Z,13.98
2022-08-19T08:15:12.614Z,14.65
2022-08-19T08:17:49.086Z,15.30
2022-08-19T08:20:20.121Z,15.55
2022-08-19T08:23:07.130Z,14.32
2022-08-19T08:25:37.507Z,14.90
2022-08-19T08:28:06.503Z,14.75
2022-08-19T08:30:36.926Z,14.55
2022-08-19T08:33:05.574Z,15.27
2022-08-19T08:35:34.475Z,15.07
2022-08-19T08:38:04.646Z,14.98
2022-08-19T08:40:36.208Z,13.82
2022-08-19T08:43:11.153Z,13.57
2022-08-19T08:45:44.623Z,15.45
2022-08-19T08:48:24.323Z,18.55
2022-08-19T08:50:53.737Z,17.13
2022-08-19T08:53:29.249Z,15.25
2022-08-19T08:55:58.925Z,15.57
2022-08-19T08:58:31.783Z,16.00
2022-08-19T09:01:00.249Z,16.00
2022-08-19T09:03:31.641Z,17.38
2022-08-19T09:06:03.142Z,15.63
2022-08-19T09:08:38.608Z,17.90
2022-08-19T09:11:09.411Z,17.80
2022-08-19T09:13:45.683Z,16.58
2022-08-19T09:16:16.600Z,17.75
2022-08-19T09:18:46.986Z,17.80
2022-08-19T09:21:16.050Z,17.33
2022-08-19T09:23:45.528Z,17.63
2022-08-19T09:26:16.492Z,17.70
2022-08-19T09:28:48.381Z,19.52
2022-08-19T09:31:18.717Z,18.83
2022-08-19T09:33:47.050Z,20.63
2022-08-19T09:36:21.824Z,19.33
2022-08-19T09:39:03.282Z,18.95
2022-08-19T09:41:31.627Z,20.52
2022-08-19T09:44:01.599Z,18.58
2022-08-19T09:46:32.052Z,17.73
2022-08-19T09:49:02.954Z,19.90
2022-08-19T09:51:35.069Z,20.63
2022-08-19T09:54:04.821Z,16.27
2022-08-19T09:56:34.316Z,19.45
2022-08-19T09:59:05.029Z,17.70
2022-08-19T10:01:34.107Z,19.00
2022-08-19T10:04:09.386Z,21.75
2022-08-19T10:06:48.571Z,17.48
2022-08-19T10:09:26.444Z,17.55
2022-08-19T10:12:02.892Z,16.13
2022-08-19T10:14:33.176Z,15.60
2022-08-19T10:17:17.587Z,16.52
2022-08-19T10:19:53.822Z,14.35
2022-08-19T10:22:25.588Z,12.85
2022-08-19T10:24:54.463Z,14.98
2022-08-19T10:27:22.998Z,14.18
2022-08-19T10:29:52.683Z,13.73
2022-08-19T10:32:33.657Z,14.25
2022-08-19T10:35:02.944Z,13.57
2022-08-19T10:37:34.642Z,13.88
2022-08-19T10:40:04.166Z,15.18
2022-08-19T10:42:32.547Z,16.02
2022-08-19T10:45:02.242Z,14.65
2022-08-19T10:47:33.295Z,15.45
2022-08-19T10:50:19.019Z,15.82
2022-08-19T10:52:49.689Z,15.65
2022-08-19T10:55:37.396Z,17.58
2022-08-19T10:58:06.049Z,17.58
2022-08-19T11:00:36.294Z,17.13
2022-08-19T11:03:05.838Z,14.07
2022-08-19T11:05:39.882Z,14.55
2022-08-19T11:08:18.115Z,15.23
2022-08-19T11:10:52.563Z,15.27
2022-08-19T11:13:20.891Z,16.17
2022-08-19T11:15:50.576Z,16.58
2022-08-19T11:18:18.963Z,15.95
2022-08-19T11:20:47.270Z,16.77
2022-08-19T11:23:15.588Z,14.70
2022-08-19T11:25:43.897Z,16.33
2022-08-19T11:28:12.182Z,17.02
2022-08-19T11:30:40.562Z,16.13
2022-08-19T11:33:11.885Z,16.73
2022-08-19T11:35:42.419Z,15.57
2022-08-19T11:38:10.716Z,15.70
2022-08-19T11:40:39.001Z,16.45
2022-08-19T11:43:07.296Z,15.80
2022-08-19T11:45:35.594Z,18.35
2022-08-19T11:48:04.177Z,14.60
2022-08-19T11:50:33.794Z,18.70
2022-08-19T11:53:02.106Z,15.77
2022-08-19T11:55:30.382Z,15.95
2022-08-19T11:57:58.863Z,16.58
2022-08-19T12:00:28.152Z,16.08
2022-08-19T12:02:56.792Z,16.60
2022-08-19T12:05:25.076Z,17.08
2022-08-19T12:07:55.487Z,14.80
2022-08-19T12:10:26.379Z,16.73
2022-08-19T12:12:58.661Z,16.67
2022-08-19T12:15:28.815Z,16.20
2022-08-19T12:18:05.219Z,15.90
2022-08-19T12:20:35.520Z,16.73
2022-08-19T12:23:06.148Z,16.90
2022-08-19T12:25:35.431Z,15.45
2022-08-19T12:28:04.313Z,13.63
2022-08-19T12:30:32.990Z,14.10
2022-08-19T12:33:01.306Z,15.45
2022-08-19T12:35:31.466Z,15.00
2022-08-19T12:38:00.025Z,17.30
2022-08-19T12:40:30.036Z,17.10
2022-08-19T12:42:58.384Z,19.30
2022-08-19T12:45:28.293Z,17.55
2022-08-19T12:47:56.792Z,17.40
2022-08-19T12:50:25.282Z,17.75
2022-08-19T12:52:53.858Z,18.90
2022-08-19T12:55:22.275Z,20.92
2022-08-19T12:57:51.919Z,16.92
2022-08-19T13:00:22.042Z,21.02
2022-08-19T13:02:51.467Z,17.48
2022-08-19T13:05:21.913Z,19.42
2022-08-19T13:07:50.273Z,18.65
2022-08-19T13:10:20.581Z,16.77
2022-08-19T13:12:49.885Z,14.55
2022-08-19T13:15:23.746Z,19.10
2022-08-19T13:17:53.826Z,19.55
2022-08-19T13:20:23.383Z,17.77
2022-08-19T13:22:52.327Z,16.58
2022-08-19T13:25:20.971Z,20.73
2022-08-19T13:27:50.132Z,16.73
2022-08-19T13:30:38.804Z,15.23
2022-08-19T13:33:16.002Z,18.45
2022-08-19T13:35:48.136Z,17.65
2022-08-19T13:38:17.395Z,16.55
2022-08-19T13:40:45.972Z,16.33
2022-08-19T13:43:22.851Z,14.98
2022-08-19T13:45:54.820Z,16.75
2022-08-19T13:48:24.765Z,15.88
2022-08-19T13:50:53.122Z,17.23
2022-08-19T13:53:21.426Z,17.02
2022-08-19T13:55:51.443Z,15.07
2022-08-19T13:58:19.758Z,16.40
2022-08-19T14:00:49.490Z,16.85
2022-08-19T14:03:19.136Z,15.93
2022-08-19T14:05:48.047Z,14.48
2022-08-19T14:08:16.372Z,13.45
2022-08-19T14:10:45.517Z,14.15
2022-08-19T14:13:15.909Z,13.50
2022-08-19T14:15:44.262Z,12.38
2022-08-19T14:18:12.799Z,10.60
2022-08-19T14:20:42.718Z,11.25
2022-08-19T14:23:11.707Z,10.50
2022-08-19T14:25:40.013Z,12.45
2022-08-19T14:28:08.764Z,9.75
2022-08-19T14:30:38.765Z,10.13
2022-08-19T14:33:08.045Z,12.13
2022-08-19T14:35:37.227Z,9.02
2022-08-19T14:38:08.161Z,6.55
2022-08-19T14:40:36.514Z,6.55
2022-08-19T14:43:06.102Z,5.10
2022-08-19T14:45:34.995Z,5.60
2022-08-19T14:48:05.472Z,6.15
2022-08-19T14:50:35.960Z,7.60
2022-08-19T14:53:09.044Z,6.25
2022-08-19T14:55:44.887Z,8.27
2022-08-19T14:58:29.405Z,6.25
2022-08-19T15:00:58.953Z,4.55
2022-08-19T15:03:27.266Z,5.18
2022-08-19T15:05:56.509Z,4.57
2022-08-19T15:08:25.788Z,5.75
2022-08-19T15:10:55.969Z,4.65
2022-08-19T15:13:25.577Z,4.80
2022-08-19T15:15:53.930Z,6.10
2022-08-19T15:18:22.694Z,4.93
2022-08-19T15:20:51.931Z,4.28
2022-08-19T15:23:21.721Z,5.00
2022-08-19T15:25:53.000Z,6.15
2022-08-19T15:28:22.683Z,6.45
2022-08-19T15:30:52.288Z,4.90
2022-08-19T15:33:21.179Z,6.05
2022-08-19T15:35:51.548Z,4.10
2022-08-19T15:38:22.342Z,4.97
2022-08-19T15:40:51.765Z,6.22
2022-08-19T15:43:21.270Z,4.90
2022-08-19T15:45:51.041Z,5.45
2022-08-19T15:48:19.361Z,6.18
2022-08-19T15:50:47.660Z,5.70
2022-08-19T15:53:15.939Z,5.18
2022-08-19T15:55:45.331Z,4.90
2022-08-19T15:58:32.283Z,4.38
2022-08-19T16:01:21.302Z,5.75
2022-08-19T16:04:13.957Z,5.78
2022-08-19T16:06:44.717Z,6.32
2022-08-19T16:09:13.159Z,6.38
2022-08-19T16:11:45.555Z,10.55
2022-08-19T16:14:14.439Z,8.88
2022-08-19T16:16:47.210Z,9.65
2022-08-19T16:19:16.593Z,10.30
2022-08-19T16:21:45.484Z,9.38
2022-08-19T16:24:14.581Z,8.75
2022-08-19T16:26:43.559Z,10.25
2022-08-19T16:29:13.079Z,8.35
2022-08-19T16:31:43.507Z,9.10
2022-08-19T16:34:14.243Z,10.10
2022-08-19T16:36:43.527Z,10.32
2022-08-19T16:39:12.971Z,9.27
2022-08-19T16:41:41.720Z,11.98
2022-08-19T16:44:11.368Z,11.00
2022-08-19T16:46:42.564Z,9.13
2022-08-19T16:49:11.546Z,9.48
2022-08-19T16:51:41.458Z,11.98
2022-08-19T16:54:09.796Z,9.10
2022-08-19T16:56:38.267Z,10.57
2022-08-19T16:59:06.577Z,7.85
2022-08-19T17:01:34.968Z,7.90
2022-08-19T17:04:03.649Z,8.32
2022-08-19T17:06:32.664Z,7.90
2022-08-19T17:09:03.182Z,8.98
2022-08-19T17:11:33.734Z,7.35
2022-08-19T17:14:02.563Z,7.45
2022-08-19T17:16:32.350Z,7.93
2022-08-19T17:19:01.771Z,7.32
2022-08-19T17:21:32.048Z,6.20
2022-08-19T17:24:02.300Z,7.80
2022-08-19T17:26:31.089Z,6.18
2022-08-19T17:29:00.225Z,7.43
2022-08-19T17:31:29.994Z,7.93
2022-08-19T17:33:58.874Z,7.10
2022-08-19T17:36:28.125Z,6.47
2022-08-19T17:38:56.705Z,6.55
2022-08-19T17:41:27.444Z,6.45
2022-08-19T17:43:55.982Z,7.18
2022-08-19T17:46:24.263Z,7.03
2022-08-19T17:48:55.131Z,7.47
2022-08-19T17:51:24.609Z,6.72
2022-08-19T17:53:54.460Z,6.25
2022-08-19T17:56:23.927Z,6.38
2022-08-19T17:59:00.641Z,7.05
2022-08-19T18:01:40.272Z,7.10
2022-08-19T18:04:19.742Z,7.53
2022-08-19T18:06:53.143Z,8.40
2022-08-19T18:09:23.838Z,7.00
2022-08-19T18:11:53.404Z,6.45
2022-08-19T18:14:32.960Z,7.68
2022-08-19T18:17:05.527Z,7.75
2022-08-19T18:19:42.296Z,6.13
2022-08-19T18:22:12.326Z,7.68
2022-08-19T18:24:40.876Z,6.85
2022-08-19T18:27:10.111Z,6.60
2022-08-19T18:29:40.274Z,7.38
2022-08-19T18:32:13.315Z,8.13
2022-08-19T18:34:42.046Z,9.85
2022-08-19T18:37:10.450Z,9.05
2022-08-19T18:39:56.323Z,8.27
2022-08-19T18:42:42.245Z,7.85
2022-08-19T18:45:29.997Z,8.43
2022-08-19T18:48:25.763Z,8.90
2022-08-19T18:50:56.491Z,7.65
2022-08-19T18:53:24.827Z,8.00
2022-08-19T18:55:54.001Z,7.95
2022-08-19T18:58:26.102Z,7.95
2022-08-19T19:00:57.692Z,8.83
2022-08-19T19:03:26.808Z,7.88
2022-08-19T19:05:55.315Z,8.45
2022-08-19T19:08:27.094Z,8.07
2022-08-19T19:10:56.790Z,7.50
2022-08-19T19:13:25.151Z,8.30
2022-08-19T19:15:54.471Z,9.65
2022-08-19T19:18:25.161Z,7.53
2022-08-19T19:20:53.476Z,8.38
2022-08-19T19:23:22.522Z,7.55
2022-08-19T19:25:52.285Z,7.10
2022-08-19T19:28:25.704Z,7.30
2022-08-19T19:33:23.893Z,8.48
2022-08-19T19:35:52.200Z,9.38
2022-08-19T19:38:20.530Z,7.88
2022-08-19T19:40:48.871Z,8.95
2022-08-19T19:43:18.250Z,10.25
2022-08-19T19:45:48.291Z,9.98
2022-08-19T19:48:16.787Z,9.95
2022-08-19T19:50:54.178Z,9.85
2022-08-19T19:53:24.866Z,10.13
2022-08-19T19:55:57.636Z,10.52
2022-08-19T19:58:28.661Z,13.15
2022-08-19T20:00:57.687Z,12.57
2022-08-19T20:03:26.100Z,11.73
2022-08-19T20:05:58.204Z,12.45
2022-08-19T20:08:44.211Z,12.38
2022-08-19T20:11:17.560Z,12.55
2022-08-19T20:13:45.868Z,13.05
2022-08-19T20:16:14.151Z,10.95
2022-08-19T20:18:43.990Z,11.93
2022-08-19T20:21:13.784Z,15.90
2022-08-19T20:23:42.110Z,12.07
2022-08-19T20:26:32.073Z,10.75
2022-08-19T20:29:11.227Z,12.30
2022-08-19T20:31:57.710Z,11.13
2022-08-19T20:34:27.803Z,11.32
2022-08-19T20:36:57.525Z,11.75
2022-08-19T20:39:25.843Z,12.45
2022-08-19T20:41:56.282Z,11.30
2022-08-19T20:44:24.824Z,11.45
2022-08-19T20:46:54.842Z,11.43
2022-08-19T20:49:27.136Z,10.02
2022-08-19T20:51:57.873Z,10.73
2022-08-19T20:54:26.951Z,11.55
2022-08-19T20:56:55.655Z,11.27
2022-08-19T20:59:24.089Z,11.40
2022-08-19T21:01:52.771Z,10.77
2022-08-19T21:04:21.886Z,11.45
2022-08-19T21:06:50.241Z,11.25
2022-08-19T21:09:20.460Z,10.00
2022-08-19T21:11:49.144Z,10.10
2022-08-19T21:14:19.524Z,11.60
2022-08-19T21:16:47.866Z,9.98
2022-08-19T21:19:19.878Z,10.05
2022-08-19T21:21:50.534Z,11.02
2022-08-19T21:24:20.208Z,11.82
2022-08-19T21:26:51.337Z,13.05
2022-08-19T21:29:20.031Z,10.70
2022-08-19T21:31:49.027Z,11.75
2022-08-19T21:34:18.536Z,11.32
2022-08-19T21:36:47.158Z,9.65
2022-08-19T21:39:15.485Z,9.23
2022-08-19T21:41:45.153Z,10.02
2022-08-19T21:44:13.477Z,10.13
2022-08-19T21:46:41.806Z,9.88
2022-08-19T21:49:10.099Z,10.32
2022-08-19T21:51:38.409Z,10.80
2022-08-19T21:54:06.752Z,9.70
2022-08-19T21:56:35.093Z,10.27
2022-08-19T21:59:04.785Z,10.75
2022-08-19T22:01:33.069Z,8.63
2022-08-19T22:04:01.442Z,9.82
2022-08-19T22:06:29.740Z,10.45
2022-08-19T22:08:58.039Z,10.85
2022-08-19T22:11:26.871Z,8.35
2022-08-19T22:13:56.599Z,10.45
2022-08-19T22:16:26.376Z,9.32
2022-08-19T22:18:54.826Z,10.38
2022-08-19T22:21:39.950Z,9.70
2022-08-19T22:24:09.614Z,9.80
2022-08-19T22:26:37.908Z,10.35
2022-08-19T22:29:07.571Z,9.25
2022-08-19T22:31:37.712Z,8.07
2022-08-19T22:34:06.704Z,9.05
2022-08-19T22:36:35.462Z,9.00
2022-08-19T22:39:04.069Z,8.80
2022-08-19T22:41:33.583Z,9.18
2022-08-19T22:44:02.062Z,8.30
2022-08-19T22:46:34.239Z,8.75
2022-08-19T22:49:03.903Z,9.88
2022-08-19T22:51:50.133Z,9.45
2022-08-19T22:54:18.596Z,9.57
2022-08-19T22:56:47.055Z,10.95
2022-08-19T22:59:15.335Z,9.20
2022-08-19T23:01:43.629Z,9.77
2022-08-19T23:04:13.302Z,9.95
2022-08-19T23:06:42.356Z,9.93
2022-08-19T23:09:11.407Z,10.30
2022-08-19T23:11:45.975Z,11.95
2022-08-19T23:14:14.784Z,10.60
2022-08-19T23:16:50.522Z,9.85
2022-08-19T23:19:20.865Z,9.93
2022-08-19T23:21:49.329Z,8.85
2022-08-19T23:24:17.651Z,10.88
2022-08-19T23:26:59.952Z,10.10
2022-08-19T23:29:45.832Z,10.75
2022-08-19T23:32:16.828Z,9.13
2022-08-19T23:34:47.097Z,9.70
2022-08-19T23:37:15.429Z,9.70
2022-08-19T23:39:44.683Z,10.00
2022-08-19T23:42:13.843Z,10.07
2022-08-19T23:44:52.319Z,9.45
2022-08-19T23:47:21.805Z,11.90
2022-08-19T23:49:51.699Z,10.20
2022-08-19T23:52:20.189Z,11.07
2022-08-19T23:54:48.515Z,9.50
2022-08-19T23:57:16.842Z,9.48
2022-08-19T23:59:46.177Z,11.15
